Time;durP1;ratioP1;P1;durP2;ratioP2;P2;SDS_P1;SDS_P2;PMS_P1;PMS_P2;Temp;Humidity;BMP_temperature;BMP_pressure;BME280_temperature;BME280_humidity;BME280_pressure;Samples;Min_cycle;Max_cycle;Signal;HPM_P1;HPM_P2
2022/04/07 00:01:50;;;;;;;1999.90;999.90;;;;;;;5.41;48.25;99006.38;4940220;28;97572;-75
2022/04/07 00:04:18;;;;;;;1999.90;999.90;;;;;;;5.38;48.45;99011.63;4940735;28;99182;-75
2022/04/07 00:06:46;;;;;;;1999.90;999.90;;;;;;;5.39;48.28;98999.31;4941063;28;97707;-75
2022/04/07 00:09:14;;;;;;;1999.90;999.90;;;;;;;5.40;48.14;99006.34;4939315;28;99319;-74
2022/04/07 00:11:42;;;;;;;1999.90;999.90;;;;;;;5.41;48.56;99006.38;4940269;28;97768;-74
2022/04/07 00:14:10;;;;;;;1999.90;999.90;;;;;;;5.39;48.50;99002.84;4940716;28;97121;-75
2022/04/07 00:16:38;;;;;;;1999.90;999.90;;;;;;;5.38;48.68;98992.25;4939978;28;99943;-75
2022/04/07 00:19:09;;;;;;;1999.90;999.90;;;;;;;5.34;48.73;98988.69;4940655;28;97752;-75
2022/04/07 00:21:38;;;;;;;1999.90;999.90;;;;;;;5.36;48.74;98979.06;4941052;28;97942;-75
2022/04/07 00:24:07;;;;;;;1999.90;999.90;;;;;;;5.37;48.48;98982.59;4940055;28;98204;-75
2022/04/07 00:26:35;;;;;;;1999.90;999.90;;;;;;;5.37;48.72;98970.31;4940961;28;98833;-76
2022/04/07 00:29:03;;;;;;;1999.90;999.90;;;;;;;5.37;48.54;98969.41;4941459;28;97614;-76
2022/04/07 00:31:39;;;;;;;1999.90;999.90;;;;;;;5.38;48.62;98966.78;4943092;28;99193;-75
2022/04/07 00:34:11;;;;;;;1999.90;999.90;;;;;;;5.37;48.87;98964.13;4942298;28;96719;-75
2022/04/07 00:36:39;;;;;;;1999.90;999.90;;;;;;;5.36;48.73;98960.59;4956504;28;98893;-75
2022/04/07 00:39:08;;;;;;;1999.90;999.90;;;;;;;5.35;48.96;98948.28;4941799;28;97780;-75
2022/04/07 00:41:38;;;;;;;1999.90;999.90;;;;;;;5.33;48.75;98941.22;4940899;28;97067;-75
2022/04/07 00:44:08;;;;;;;1999.90;999.90;;;;;;;5.32;49.24;98950.00;4941212;28;97129;-75
2022/04/07 00:46:37;;;;;;;1999.90;999.90;;;;;;;5.32;48.88;98947.38;4941815;28;100948;-75
2022/04/07 00:49:05;;;;;;;1999.90;999.90;;;;;;;5.30;49.08;98939.44;4938832;28;100368;-75
2022/04/07 00:51:35;;;;;;;1999.90;999.90;;;;;;;5.27;48.95;98939.38;4957703;28;97685;-75
2022/04/07 00:54:02;;;;;;;1999.90;999.90;;;;;;;5.27;49.32;98939.38;4940711;28;97388;-75
2022/04/07 00:56:31;;;;;;;1999.90;999.90;;;;;;;5.27;49.25;98939.38;4939548;28;99248;-75
2022/04/07 00:58:59;;;;;;;1999.90;999.90;;;;;;;5.23;49.05;98935.84;4941517;28;97658;-75
2022/04/07 01:01:28;;;;;;;1999.90;999.90;;;;;;;5.21;49.47;98929.66;4941373;28;97891;-75
2022/04/07 01:03:56;;;;;;;1999.90;999.90;;;;;;;5.17;49.28;98922.56;4956726;28;97025;-75
2022/04/07 01:06:24;;;;;;;1999.90;999.90;;;;;;;5.16;49.34;98927.81;4955850;28;96872;-75
2022/04/07 01:08:53;;;;;;;1999.90;999.90;;;;;;;5.12;49.60;98923.34;4939212;28;99804;-75
2022/04/07 01:11:21;;;;;;;1999.90;999.90;;;;;;;5.10;49.54;98925.97;4940362;28;96911;-75
2022/04/07 01:13:50;;;;;;;1999.90;999.90;;;;;;;5.05;49.90;98914.50;4940819;28;96852;-75
2022/04/07 01:16:19;;;;;;;1999.90;999.90;;;;;;;5.03;49.80;98912.69;4940413;28;97529;-76
2022/04/07 01:18:48;;;;;;;1999.90;999.90;;;;;;;4.98;49.94;98912.63;4938728;28;98857;-75
2022/04/07 01:21:16;;;;;;;1999.90;999.90;;;;;;;4.95;50.14;98904.69;4939209;28;97855;-75
2022/04/07 01:23:51;;;;;;;1999.90;999.90;;;;;;;4.93;50.13;98908.16;4941518;28;98252;-75
2022/04/07 01:26:20;;;;;;;1999.90;999.90;;;;;;;4.90;49.92;98901.06;4957126;28;99282;-76
2022/04/07 01:28:49;;;;;;;1999.90;999.90;;;;;;;4.90;50.23;98906.34;4940723;28;97518;-76
2022/04/07 01:31:17;;;;;;;1999.90;999.90;;;;;;;4.89;50.09;98901.06;4955590;28;97691;-76
2022/04/07 01:33:45;;;;;;;1999.90;999.90;;;;;;;4.88;50.15;98899.31;4924870;28;97861;-75
2022/04/07 01:36:13;;;;;;;1999.90;999.90;;;;;;;4.90;50.13;98902.84;4939427;28;98506;-76
2022/04/07 01:38:42;;;;;;;1999.90;999.90;;;;;;;4.91;50.27;98896.69;4938114;28;97604;-76
2022/04/07 01:41:10;;;;;;;1999.90;999.90;;;;;;;4.96;50.16;98897.63;4936207;28;97242;-75
2022/04/07 01:43:40;;;;;;;1999.90;999.90;;;;;;;4.93;50.28;98890.59;4936209;28;97340;-75
2022/04/07 01:46:08;;;;;;;1999.90;999.90;;;;;;;4.94;50.48;98896.72;4933521;28;99537;-75
2022/04/07 01:48:36;;;;;;;1999.90;999.90;;;;;;;4.97;50.14;98881.84;4935484;28;98639;-75
2022/04/07 01:51:04;;;;;;;1999.90;999.90;;;;;;;4.98;50.45;98881.00;4939821;28;97641;-75
2022/04/07 01:53:32;;;;;;;1999.90;999.90;;;;;;;5.02;50.47;98871.38;4940339;28;97497;-76
2022/04/07 01:56:00;;;;;;;1999.90;999.90;;;;;;;5.04;50.33;98867.03;4940963;28;100972;-76
2022/04/07 01:58:28;;;;;;;1999.90;999.90;;;;;;;5.02;50.31;98858.19;4941756;28;98652;-76
2022/04/07 02:00:57;;;;;;;1999.90;999.90;;;;;;;5.01;50.21;98857.31;4938273;28;97303;-75
2022/04/07 02:03:25;;;;;;;1999.90;999.90;;;;;;;4.99;50.33;98855.53;4937917;28;97716;-75
2022/04/07 02:05:53;;;;;;;1999.90;999.90;;;;;;;4.97;50.39;98850.22;4922138;28;100509;-75
2022/04/07 02:08:21;;;;;;;1999.90;999.90;;;;;;;4.97;50.51;98844.09;4937787;28;100008;-75
2022/04/07 02:10:49;;;;;;;1999.90;999.90;;;;;;;4.95;50.69;98838.81;4938641;28;98494;-75
2022/04/07 02:13:33;;;;;;;1999.90;999.90;;;;;;;4.97;50.85;98838.81;4941637;28;96591;-75
2022/04/07 02:16:02;;;;;;;1999.90;999.90;;;;;;;4.96;50.57;98839.66;4923285;28;99851;-75
2022/04/07 02:18:30;;;;;;;1999.90;999.90;;;;;;;4.94;50.76;98841.38;4939369;28;101027;-75
2022/04/07 02:20:58;;;;;;;1999.90;999.90;;;;;;;4.91;50.94;98837.00;4937512;28;96849;-75
2022/04/07 02:23:27;;;;;;;1999.90;999.90;;;;;;;4.90;50.77;98831.69;4938415;28;96957;-75
2022/04/07 02:25:54;;;;;;;1999.90;999.90;;;;;;;4.86;51.01;98838.69;4938257;28;99134;-75
2022/04/07 02:28:22;;;;;;;1999.90;999.90;;;;;;;4.86;51.14;98827.25;4939097;28;98727;-75
2022/04/07 02:30:53;;;;;;;1999.90;999.90;;;;;;;4.88;51.14;98822.88;4940170;28;96879;-75
2022/04/07 02:33:22;;;;;;;1999.90;999.90;;;;;;;4.90;50.95;98813.25;4940239;28;97042;-75
2022/04/07 02:35:50;;;;;;;1999.90;999.90;;;;;;;4.91;50.77;98812.38;4922908;28;98745;-75
2022/04/07 02:38:18;;;;;;;1999.90;999.90;;;;;;;4.93;50.98;98802.75;4933959;28;99433;-75
2022/04/07 02:40:46;;;;;;;1999.90;999.90;;;;;;;4.94;50.90;98807.13;4938513;28;97169;-75
2022/04/07 02:43:14;;;;;;;1999.90;999.90;;;;;;;4.95;50.62;98815.09;4941121;28;97215;-75
2022/04/07 02:45:42;;;;;;;1999.90;999.90;;;;;;;4.93;51.05;98811.53;4940497;28;98826;-76
2022/04/07 02:48:09;;;;;;;1999.90;999.90;;;;;;;4.93;50.95;98805.38;4939515;28;98421;-75
2022/04/07 02:50:39;;;;;;;1999.90;999.90;;;;;;;4.90;51.00;98802.72;4938498;28;97241;-75
2022/04/07 02:53:07;;;;;;;1999.90;999.90;;;;;;;4.88;51.15;98797.41;4934252;28;97371;-75
2022/04/07 02:55:35;;;;;;;1999.90;999.90;;;;;;;4.88;50.85;98775.47;4939494;28;100956;-75
2022/04/07 02:58:02;;;;;;;1999.90;999.90;;;;;;;4.90;51.11;98773.72;4938197;28;97640;-75
2022/04/07 03:00:31;;;;;;;1999.90;999.90;;;;;;;4.90;51.09;98781.63;4938769;28;98163;-75
2022/04/07 03:02:59;;;;;;;1999.90;999.90;;;;;;;4.90;50.69;98773.72;4923875;28;98778;-74
2022/04/07 03:05:27;;;;;;;1999.90;999.90;;;;;;;4.91;50.83;98771.09;4938894;28;99330;-75
2022/04/07 03:07:57;;;;;;;1999.90;999.90;;;;;;;4.94;51.03;98770.25;4923597;28;101139;-75
2022/04/07 03:10:25;;;;;;;1999.90;999.90;;;;;;;4.93;51.11;98763.22;4939837;28;99127;-75
2022/04/07 03:12:52;;;;;;;1999.90;999.90;;;;;;;4.96;51.22;98763.25;4940545;28;97379;-75
2022/04/07 03:15:20;;;;;;;1999.90;999.90;;;;;;;4.98;51.04;98753.59;4938326;28;99389;-75
2022/04/07 03:17:48;;;;;;;1999.90;999.90;;;;;;;5.00;51.11;98741.34;4940294;28;98657;-75
2022/04/07 03:20:16;;;;;;;1999.90;999.90;;;;;;;5.00;51.12;98734.31;4939025;28;97357;-75
2022/04/07 03:22:44;;;;;;;1999.90;999.90;;;;;;;5.02;51.11;98726.41;4924567;28;97448;-75
2022/04/07 03:25:13;;;;;;;1999.90;999.90;;;;;;;5.03;51.17;98718.56;4943056;28;99252;-75
2022/04/07 03:27:41;;;;;;;1999.90;999.90;;;;;;;5.03;51.27;98707.13;4942485;28;99699;-75
2022/04/07 03:30:10;;;;;;;1999.90;999.90;;;;;;;5.05;51.15;98705.38;4959063;28;97389;-75
2022/04/07 03:32:37;;;;;;;1999.90;999.90;;;;;;;5.06;51.26;98702.75;4945789;28;97520;-74
2022/04/07 03:35:05;;;;;;;1999.90;999.90;;;;;;;5.07;51.42;98696.63;4927445;28;101215;-75
2022/04/07 03:37:34;;;;;;;1999.90;999.90;;;;;;;5.08;51.21;98690.50;4947006;28;97968;-75
2022/04/07 03:40:02;;;;;;;1999.90;999.90;;;;;;;5.07;51.25;98690.47;4943826;28;96758;-75
2022/04/07 03:42:31;;;;;;;1999.90;999.90;;;;;;;5.09;51.60;98688.75;4943458;28;97181;-75
2022/04/07 03:44:59;;;;;;;1999.90;999.90;;;;;;;5.07;51.45;98688.72;4942692;28;100847;-75
2022/04/07 03:47:27;;;;;;;1999.90;999.90;;;;;;;5.09;51.37;98672.94;4940983;28;99236;-75
2022/04/07 03:49:55;;;;;;;1999.90;999.90;;;;;;;5.08;51.46;98679.09;4940489;28;97130;-75
2022/04/07 03:52:23;;;;;;;1999.90;999.90;;;;;;;5.06;51.70;98676.41;4938903;28;97624;-75
2022/04/07 03:54:50;;;;;;;1999.90;999.90;;;;;;;5.08;51.65;98668.53;4958601;28;99597;-75
2022/04/07 03:57:18;;;;;;;1999.90;999.90;;;;;;;5.10;51.50;98669.44;4943018;28;97774;-75
2022/04/07 03:59:48;;;;;;;1999.90;999.90;;;;;;;5.10;51.29;98666.81;4926873;28;96994;-75
2022/04/07 04:02:15;;;;;;;1999.90;999.90;;;;;;;5.09;51.61;98665.03;4938885;28;98738;-75
2022/04/07 04:04:47;;;;;;;1999.90;999.90;;;;;;;5.11;51.62;98668.56;4940885;28;99310;-77
2022/04/07 04:07:15;;;;;;;1999.90;999.90;;;;;;;5.11;51.57;98665.94;4938566;28;99708;-75
2022/04/07 04:09:45;;;;;;;1999.90;999.90;;;;;;;5.11;51.66;98653.63;4958515;28;97059;-75
2022/04/07 04:12:13;;;;;;;1999.90;999.90;;;;;;;5.13;51.49;98651.91;4923964;28;98341;-75
2022/04/07 04:14:40;;;;;;;1999.90;999.90;;;;;;;5.15;51.73;98652.81;4943406;28;97235;-75
2022/04/07 04:17:10;;;;;;;1999.90;999.90;;;;;;;5.16;51.80;98641.38;4942060;28;99378;-74
2022/04/07 04:19:37;;;;;;;1999.90;999.90;;;;;;;5.14;51.69;98643.09;4942122;28;97690;-75
2022/04/07 04:22:05;;;;;;;1999.90;999.90;;;;;;;5.12;52.04;98642.22;4937353;28;97776;-75
2022/04/07 04:24:33;;;;;;;1999.90;999.90;;;;;;;5.13;51.69;98637.81;4936508;28;99282;-74
2022/04/07 04:27:01;;;;;;;1999.90;999.90;;;;;;;5.16;51.61;98632.56;4925897;28;98151;-74
2022/04/07 04:29:29;;;;;;;1999.90;999.90;;;;;;;5.14;51.82;98631.66;4958238;28;96823;-75
2022/04/07 04:31:56;;;;;;;1999.90;999.90;;;;;;;5.12;51.93;98622.88;4943018;28;97131;-75
2022/04/07 04:34:25;;;;;;;1999.90;999.90;;;;;;;5.12;51.64;98625.50;4940661;28;100394;-75
2022/04/07 04:36:53;;;;;;;1999.90;999.90;;;;;;;5.13;51.61;98629.91;4941534;28;97502;-76
2022/04/07 04:39:21;;;;;;;1999.90;999.90;;;;;;;5.12;51.62;98622.88;4926608;28;96858;-75
2022/04/07 04:41:49;;;;;;;1999.90;999.90;;;;;;;5.12;51.74;98629.03;4944344;28;96886;-75
2022/04/07 04:44:17;;;;;;;1999.90;999.90;;;;;;;5.13;51.83;98624.66;4925561;28;100298;-76
2022/04/07 04:46:50;;;;;;;1999.90;999.90;;;;;;;5.17;52.07;98626.44;4943050;28;97621;-75
2022/04/07 04:49:17;;;;;;;1999.90;999.90;;;;;;;5.18;51.50;98612.38;4941757;28;97339;-75
2022/04/07 04:51:47;;;;;;;1999.90;999.90;;;;;;;5.20;51.53;98618.56;4939536;28;98550;-75
2022/04/07 04:54:16;;;;;;;1999.90;999.90;;;;;;;5.20;51.55;98602.72;4942211;28;98873;-75
2022/04/07 04:56:43;;;;;;;1999.90;999.90;;;;;;;5.23;51.38;98611.53;4940042;28;97703;-75
2022/04/07 04:59:11;;;;;;;1999.90;999.90;;;;;;;5.23;51.26;98608.03;4940519;28;99376;-75
2022/04/07 05:01:39;;;;;;;1999.90;999.90;;;;;;;5.21;51.41;98608.00;4938268;28;97663;-75
2022/04/07 05:04:07;;;;;;;1999.90;999.90;;;;;;;5.23;51.26;98606.28;4940363;28;98875;-75
2022/04/07 05:06:35;;;;;;;1999.90;999.90;;;;;;;5.25;51.40;98608.91;4941563;28;100854;-77
2022/04/07 05:09:04;;;;;;;1999.90;999.90;;;;;;;5.27;51.12;98601.91;4944012;28;97609;-75
2022/04/07 05:11:33;;;;;;;1999.90;999.90;;;;;;;5.29;51.13;98592.25;4939037;28;97313;-75
2022/04/07 05:14:01;;;;;;;1999.90;999.90;;;;;;;5.30;51.21;98591.41;4940950;28;98689;-75
2022/04/07 05:16:29;;;;;;;1999.90;999.90;;;;;;;5.34;51.11;98582.63;4942929;28;97639;-75
2022/04/07 05:18:57;;;;;;;1999.90;999.90;;;;;;;5.36;51.22;98585.28;4940104;28;97686;-75
2022/04/07 05:21:25;;;;;;;1999.90;999.90;;;;;;;5.39;50.89;98591.47;4942732;28;97123;-75
2022/04/07 05:23:52;;;;;;;1999.90;999.90;;;;;;;5.39;51.39;98586.19;4942161;28;98484;-74
2022/04/07 05:26:21;;;;;;;1999.90;999.90;;;;;;;5.41;50.77;98581.78;4944613;28;99101;-74
2022/04/07 05:28:49;;;;;;;1999.90;999.90;;;;;;;5.38;51.34;98579.13;4926884;28;97209;-74
2022/04/07 05:31:17;;;;;;;1999.90;999.90;;;;;;;5.39;51.16;98580.03;4944247;28;97322;-76
2022/04/07 05:33:45;;;;;;;1999.90;999.90;;;;;;;5.38;51.45;98572.97;4943705;28;97785;-74
2022/04/07 05:36:16;;;;;;;1999.90;999.90;;;;;;;5.36;51.14;98572.97;4954146;28;101363;-74
2022/04/07 05:38:44;;;;;;;1999.90;999.90;;;;;;;5.38;51.05;98579.13;4939764;28;97624;-74
2022/04/07 05:41:12;;;;;;;1999.90;999.90;;;;;;;5.40;51.16;98568.59;4939174;28;97807;-74
2022/04/07 05:43:41;;;;;;;1999.90;999.90;;;;;;;5.42;50.90;98570.38;4940170;28;99454;-74
2022/04/07 05:46:09;;;;;;;1999.90;999.90;;;;;;;5.45;50.74;98575.66;4942071;28;100522;-74
2022/04/07 05:48:37;;;;;;;1999.90;999.90;;;;;;;5.44;50.84;98579.19;4944032;28;97086;-74
2022/04/07 05:51:05;;;;;;;1999.90;999.90;;;;;;;5.42;50.76;98565.09;4941013;28;97195;-74
2022/04/07 05:53:32;;;;;;;1999.90;999.90;;;;;;;5.46;50.63;98572.16;4940717;28;97384;-74
2022/04/07 05:56:00;;;;;;;1999.90;999.90;;;;;;;5.44;50.94;98573.91;4942582;28;98026;-75
2022/04/07 05:58:28;;;;;;;1999.90;999.90;;;;;;;5.46;51.04;98561.63;4943079;28;97072;-74
2022/04/07 06:00:57;;;;;;;1999.90;999.90;;;;;;;5.44;50.99;98550.19;4940138;28;96772;-76
2022/04/07 06:03:25;;;;;;;1999.90;999.90;;;;;;;5.40;51.36;98560.69;4926597;28;100112;-75
2022/04/07 06:05:53;;;;;;;1999.90;999.90;;;;;;;5.39;51.00;98549.28;4942606;28;99971;-75
2022/04/07 06:08:21;;;;;;;1999.90;999.90;;;;;;;5.37;51.35;98553.66;4942550;28;96825;-75
2022/04/07 06:10:49;;;;;;;1999.90;999.90;;;;;;;5.34;51.50;98555.41;4942820;28;96781;-74
2022/04/07 06:13:17;;;;;;;1999.90;999.90;;;;;;;5.32;51.59;98542.16;4940419;28;100750;-75
2022/04/07 06:15:45;;;;;;;1999.90;999.90;;;;;;;5.29;51.70;98530.72;4942155;28;98581;-76
2022/04/07 06:18:16;;;;;;;1999.90;999.90;;;;;;;5.29;51.35;98525.44;4957826;28;97503;-74
2022/04/07 06:20:46;;;;;;;1999.90;999.90;;;;;;;5.31;51.44;98534.25;4942486;28;96935;-74
2022/04/07 06:23:14;;;;;;;1999.90;999.90;;;;;;;5.29;51.52;98515.81;4943433;28;99352;-74
2022/04/07 06:25:41;;;;;;;1999.90;999.90;;;;;;;5.25;52.05;98511.38;4941890;28;98873;-73
2022/04/07 06:28:09;;;;;;;1999.90;999.90;;;;;;;5.27;51.38;98507.00;4941491;28;96737;-74
2022/04/07 06:30:37;;;;;;;1999.90;999.90;;;;;;;5.25;51.70;98506.09;4940333;28;97148;-74
2022/04/07 06:33:05;;;;;;;1999.90;999.90;;;;;;;5.24;51.69;98501.72;4942096;28;97986;-73
2022/04/07 06:35:34;;;;;;;1999.90;999.90;;;;;;;5.26;51.55;98497.34;4941562;28;97586;-74
2022/04/07 06:38:02;;;;;;;1999.90;999.90;;;;;;;5.26;51.91;98489.44;4939014;28;96962;-74
2022/04/07 06:40:30;;;;;;;1999.90;999.90;;;;;;;5.33;51.77;98485.06;4939012;28;97016;-74
2022/04/07 06:42:59;;;;;;;1999.90;999.90;;;;;;;5.37;51.43;98474.56;4940927;28;100194;-74
2022/04/07 06:45:28;;;;;;;1999.90;999.90;;;;;;;5.41;51.39;98473.66;4939962;28;98486;-74
2022/04/07 06:47:57;;;;;;;1999.90;999.90;;;;;;;5.44;51.47;98468.44;4942178;28;96853;-75
2022/04/07 06:50:25;;;;;;;1999.90;999.90;;;;;;;5.46;51.27;98466.69;4940735;28;96853;-73
2022/04/07 06:52:56;;;;;;;1999.90;999.90;;;;;;;5.48;51.12;98464.03;4939999;28;97629;-75
2022/04/07 06:55:24;;;;;;;1999.90;999.90;;;;;;;5.51;51.11;98467.56;4943344;28;98575;-75
2022/04/07 06:57:53;;;;;;;1999.90;999.90;;;;;;;5.52;51.47;98453.50;4958512;28;97503;-75
2022/04/07 07:00:22;;;;;;;1999.90;999.90;;;;;;;5.55;51.09;98456.16;4936166;28;97933;-75
2022/04/07 07:02:51;;;;;;;1999.90;999.90;;;;;;;5.58;50.86;98450.91;4936230;28;100170;-75
2022/04/07 07:05:20;;;;;;;1999.90;999.90;;;;;;;5.60;51.39;98442.97;4937132;28;97401;-75
2022/04/07 07:07:48;;;;;;;1999.90;999.90;;;;;;;5.64;51.08;98436.84;4926875;28;97886;-75
2022/04/07 07:10:23;;;;;;;1999.90;999.90;;;;;;;5.66;50.80;98435.09;4944933;28;97659;-75
2022/04/07 07:12:52;;;;;;;1999.90;999.90;;;;;;;5.68;51.21;98423.69;4961841;28;100193;-75
2022/04/07 07:15:21;;;;;;;1999.90;999.90;;;;;;;5.72;51.01;98422.78;4937077;28;98411;-75
2022/04/07 07:17:49;;;;;;;1999.90;999.90;;;;;;;5.79;51.21;98419.31;4950496;22;97715;-71
2022/04/07 07:20:18;;;;;;;1999.90;999.90;;;;;;;5.86;50.77;98399.09;4925062;28;97329;-71
2022/04/07 07:22:46;;;;;;;1999.90;999.90;;;;;;;5.90;50.80;98391.16;4922843;28;100168;-71
2022/04/07 07:25:14;;;;;;;1999.90;999.90;;;;;;;5.95;50.41;98378.00;4936948;28;98214;-71
2022/04/07 07:27:44;;;;;;;1999.90;999.90;;;;;;;6.01;50.35;98378.00;4924314;28;96910;-71
2022/04/07 07:30:15;;;;;;;1999.90;999.90;;;;;;;6.06;50.21;98371.84;4918838;28;98080;-71
2022/04/07 07:32:43;;;;;;;1999.90;999.90;;;;;;;6.11;50.39;98370.09;4921065;28;100516;-71
2022/04/07 07:35:11;;;;;;;1999.90;999.90;;;;;;;6.15;50.53;98353.38;4922985;28;98610;-72
2022/04/07 07:37:48;;;;;;;1999.90;999.90;;;;;;;6.20;50.38;98340.16;4924691;28;97011;-71
2022/04/07 07:40:16;;;;;;;1999.90;999.90;;;;;;;6.24;50.39;98337.53;4923510;28;96933;-71
2022/04/07 07:42:47;;;;;;;1999.90;999.90;;;;;;;6.28;50.48;98334.91;4922974;28;97574;-71
2022/04/07 07:45:15;;;;;;;1999.90;999.90;;;;;;;6.33;50.20;98328.75;4914958;28;100157;-71
2022/04/07 07:48:03;;;;;;;1999.90;999.90;;;;;;;6.35;50.38;98316.44;4920223;28;96970;-71
2022/04/07 07:50:31;;;;;;;1999.90;999.90;;;;;;;6.38;50.16;98326.13;4929154;28;98321;-71
2022/04/07 07:52:59;;;;;;;1999.90;999.90;;;;;;;6.43;50.25;98319.06;4922035;28;99760;-69
2022/04/07 07:55:27;;;;;;;1999.90;999.90;;;;;;;6.46;49.87;98311.13;4924774;28;99058;-68
2022/04/07 07:57:56;;;;;;;1999.90;999.90;;;;;;;6.52;50.18;98319.94;4923063;28;96828;-70
2022/04/07 08:00:24;;;;;;;1999.90;999.90;;;;;;;6.57;50.21;98323.44;4922995;28;96900;-71
2022/04/07 08:02:53;;;;;;;1999.90;999.90;;;;;;;6.62;49.85;98316.38;4922251;28;97953;-72
2022/04/07 08:05:21;;;;;;;1999.90;999.90;;;;;;;6.66;49.86;98306.66;4922010;28;99569;-72
2022/04/07 08:07:48;;;;;;;1999.90;999.90;;;;;;;6.72;49.84;98299.63;4923779;28;97818;-71
2022/04/07 08:10:16;;;;;;;1999.90;999.90;;;;;;;6.80;49.92;98291.63;4925599;28;96755;-73
2022/04/07 08:12:44;;;;;;;1999.90;999.90;;;;;;;6.88;49.49;98292.50;4924035;28;99257;-71
2022/04/07 08:15:16;;;;;;;1999.90;999.90;;;;;;;6.92;49.36;98318.03;4924458;28;98249;-71
2022/04/07 08:17:44;;;;;;;1999.90;999.90;;;;;;;6.95;49.36;98310.09;4923158;28;96844;-72
2022/04/07 08:20:13;;;;;;;1999.90;999.90;;;;;;;6.96;49.74;98294.22;4908617;28;97508;-71
2022/04/07 08:22:40;;;;;;;1999.90;999.90;;;;;;;7.02;49.39;98294.19;4921963;28;98177;-71
2022/04/07 08:25:09;;;;;;;1999.90;999.90;;;;;;;7.07;49.68;98291.56;4923665;28;99621;-71
2022/04/07 08:27:37;;;;;;;1999.90;999.90;;;;;;;7.12;49.29;98298.59;4923154;28;97348;-71
2022/04/07 08:30:06;;;;;;;1999.90;999.90;;;;;;;7.16;49.11;98288.88;4922194;28;97231;-72
2022/04/07 08:32:35;;;;;;;1999.90;999.90;;;;;;;7.18;48.99;98274.72;4907528;28;98626;-72
2022/04/07 08:35:03;;;;;;;1999.90;999.90;;;;;;;7.21;48.98;98266.81;4918432;28;100674;-72
2022/04/07 08:37:31;;;;;;;1999.90;999.90;;;;;;;7.23;49.30;98248.28;4923743;28;97171;-72
2022/04/07 08:40:04;;;;;;;1999.90;999.90;;;;;;;7.24;49.24;98257.94;4922927;28;97114;-71
2022/04/07 08:42:34;;;;;;;1999.90;999.90;;;;;;;7.22;49.31;98251.78;4921659;28;97143;-71
2022/04/07 08:45:02;;;;;;;1999.90;999.90;;;;;;;7.20;49.23;98240.34;4920404;28;99539;-69
2022/04/07 08:47:31;;;;;;;1999.90;999.90;;;;;;;7.13;49.41;98247.44;4921380;28;96907;-72
2022/04/07 08:50:03;;;;;;;1999.90;999.90;;;;;;;7.10;49.06;98233.34;4917650;28;98011;-72
2022/04/07 08:52:31;;;;;;;1999.90;999.90;;;;;;;7.11;49.21;98212.19;4918019;28;98757;-71
2022/04/07 08:54:59;;;;;;;1999.90;999.90;;;;;;;7.11;49.46;98209.56;4913588;28;97505;-70
2022/04/07 08:57:26;;;;;;;1999.90;999.90;;;;;;;7.16;49.12;98193.66;4913753;28;97816;-72
2022/04/07 08:59:54;;;;;;;1999.90;999.90;;;;;;;7.20;48.78;98211.25;4908932;28;97211;-71
2022/04/07 09:02:22;;;;;;;1999.90;999.90;;;;;;;7.19;49.08;98199.81;4905212;28;99325;-69
2022/04/07 09:04:58;;;;;;;1999.90;999.90;;;;;;;7.21;48.99;98205.97;4917428;28;97477;-72
2022/04/07 09:07:32;;;;;;;1999.90;999.90;;;;;;;7.22;48.90;98175.09;4914637;28;97379;-71
2022/04/07 09:10:01;;;;;;;1999.90;999.90;;;;;;;7.28;48.92;98175.06;4909092;28;97120;-71
2022/04/07 09:12:28;;;;;;;1999.90;999.90;;;;;;;7.34;48.68;98160.91;4912043;28;97938;-71
2022/04/07 09:14:58;;;;;;;1999.90;999.90;;;;;;;7.38;48.79;98147.66;4908053;28;100396;-71
2022/04/07 09:17:26;;;;;;;1999.90;999.90;;;;;;;7.44;48.62;98141.47;4913022;28;98006;-71
2022/04/07 09:19:54;;;;;;;1999.90;999.90;;;;;;;7.44;48.32;98138.84;4910759;28;97516;-71
2022/04/07 09:22:29;;;;;;;1999.90;999.90;;;;;;;7.42;48.31;98125.59;4912864;28;98187;-72
2022/04/07 09:24:59;;;;;;;1999.90;999.90;;;;;;;7.43;48.56;98116.78;4912659;28;100532;-71
2022/04/07 09:27:28;;;;;;;1999.90;999.90;;;;;;;7.45;48.52;98127.34;4908228;28;98301;-72
2022/04/07 09:29:55;;;;;;;1999.90;999.90;;;;;;;7.44;48.18;98121.19;4889958;28;98204;-71
2022/04/07 09:32:25;;;;;;;1999.90;999.90;;;;;;;7.45;48.08;98109.72;4926113;28;99836;-72
2022/04/07 09:34:53;;;;;;;1999.90;999.90;;;;;;;7.45;48.16;98116.78;4921298;28;100775;-71
2022/04/07 09:37:22;;;;;;;1999.90;999.90;;;;;;;7.44;48.07;98096.50;4907081;28;98309;-72
2022/04/07 09:39:51;;;;;;;1999.90;999.90;;;;;;;7.47;48.48;98077.97;4909924;28;98212;-71
2022/04/07 09:42:22;;;;;;;1999.90;999.90;;;;;;;7.45;47.87;98064.75;4914060;28;98789;-72
2022/04/07 09:44:52;;;;;;;1999.90;999.90;;;;;;;7.44;47.90;98088.59;4924460;28;99361;-72
2022/04/07 09:47:20;;;;;;;1999.90;999.90;;;;;;;7.42;47.88;98062.13;4935571;28;98040;-71
2022/04/07 09:49:49;;;;;;;1999.90;999.90;;;;;;;7.43;48.21;98041.84;4921227;28;98472;-72
2022/04/07 09:52:21;;;;;;;1999.90;999.90;;;;;;;7.44;48.00;98044.47;4922309;28;97756;-72
2022/04/07 09:54:51;;;;;;;1999.90;999.90;;;;;;;7.48;47.90;98035.59;4921218;28;99179;-71
2022/04/07 09:57:21;;;;;;;1999.90;999.90;;;;;;;7.48;47.80;98016.19;4924559;28;98276;-72
2022/04/07 09:59:50;;;;;;;1999.90;999.90;;;;;;;7.51;48.05;98034.72;4921859;28;97434;-71
2022/04/07 10:02:18;;;;;;;1999.90;999.90;;;;;;;7.52;47.89;98028.50;4920435;28;100397;-71
2022/04/07 10:04:47;;;;;;;1999.90;999.90;;;;;;;7.56;48.00;98004.66;4894147;28;100500;-72
2022/04/07 10:07:15;;;;;;;1999.90;999.90;;;;;;;7.59;47.82;98012.56;4919849;28;97224;-72
2022/04/07 10:09:46;;;;;;;1999.90;999.90;;;;;;;7.59;47.84;98015.22;4919027;28;97384;-72
2022/04/07 10:12:14;;;;;;;1999.90;999.90;;;;;;;7.61;47.53;98008.13;4916096;28;98290;-72
2022/04/07 10:14:43;;;;;;;1999.90;999.90;;;;;;;7.63;47.42;97995.75;4917108;28;98873;-72
2022/04/07 10:17:13;;;;;;;1999.90;999.90;;;;;;;7.63;47.23;97985.19;4919653;28;97370;-71
2022/04/07 10:19:46;;;;;;;1999.90;999.90;;;;;;;7.68;47.32;97961.28;4920312;28;97473;-71
2022/04/07 10:22:24;;;;;;;1999.90;999.90;;;;;;;7.72;47.31;97970.94;4916474;28;98319;-71
2022/04/07 10:24:55;;;;;;;1999.90;999.90;;;;;;;7.76;47.11;97960.31;4919501;28;97847;-71
2022/04/07 10:27:37;;;;;;;1999.90;999.90;;;;;;;7.78;47.12;97932.03;4919678;28;97130;-71
2022/04/07 10:30:09;;;;;;;1999.90;999.90;;;;;;;7.80;47.38;97932.03;4922055;28;98133;-71
2022/04/07 10:32:41;;;;;;;1999.90;999.90;;;;;;;8.05;46.29;97922.84;4921719;28;97717;-72
2022/04/07 10:35:10;;;;;;;1999.90;999.90;;;;;;;8.21;45.75;97930.56;4918808;28;97832;-71
2022/04/07 10:37:46;;;;;;;1999.90;999.90;;;;;;;8.30;45.23;97905.69;4917671;28;96960;-71
2022/04/07 10:40:37;;;;;;;1999.90;999.90;;;;;;;8.40;44.98;97891.41;4917462;28;97883;-72
2022/04/07 10:43:18;;;;;;;1999.90;999.90;;;;;;;8.46;44.77;97880.69;4918720;28;97865;-72
2022/04/07 10:45:49;;;;;;;1999.90;999.90;;;;;;;8.20;45.50;97888.22;4925936;28;99622;-71
2022/04/07 10:48:29;;;;;;;1999.90;999.90;;;;;;;8.14;45.95;97877.69;4917737;28;97105;-72
2022/04/07 10:50:59;;;;;;;1999.90;999.90;;;;;;;8.09;46.23;97880.41;4893114;28;97738;-72
2022/04/07 10:53:29;;;;;;;1999.90;999.90;;;;;;;8.35;45.35;97879.16;4914152;28;100199;-71
2022/04/07 10:55:59;;;;;;;1999.90;999.90;;;;;;;8.48;45.05;97859.50;4916628;28;97271;-71
2022/04/07 10:58:48;;;;;;;1999.90;999.90;;;;;;;8.59;44.72;97844.28;4901250;28;97617;-71
2022/04/07 11:01:55;;;;;;;1999.90;999.90;;;;;;;8.66;44.63;97841.50;4917126;28;97159;-72
2022/04/07 11:05:04;;;;;;;1999.90;999.90;;;;;;;8.71;44.72;97815.81;4914631;28;100818;-71
2022/04/07 11:07:37;;;;;;;1999.90;999.90;;;;;;;8.76;44.77;97811.31;4915795;28;99221;-71
2022/04/07 11:10:13;;;;;;;1999.90;999.90;;;;;;;8.81;44.74;97809.44;4917374;28;96939;-71